sensor_id;sensor_type;location;lat;lon;timestamp;temperature;humidity
20833;DHT22;56075;51.264;7.150;2022-07-21T00:00:29;18.10;99.90
20833;DHT22;56075;51.264;7.150;2022-07-21T00:03:00;20.60;99.90
20833;DHT22;56075;51.264;7.150;2022-07-21T00:05:33;19.50;99.90
20833;DHT22;56075;51.264;7.150;2022-07-21T00:08:05;19.00;99.90
20833;DHT22;56075;51.264;7.150;2022-07-21T00:10:36;19.00;99.90
20833;DHT22;56075;51.264;7.150;2022-07-21T00:13:08;20.40;99.90
20833;DHT22;56075;51.264;7.150;2022-07-21T00:15:39;19.00;99.90
20833;DHT22;56075;51.264;7.150;2022-07-21T00:18:10;19.00;99.90
20833;DHT22;56075;51.264;7.150;2022-07-21T00:20:42;19.70;99.90
20833;DHT22;56075;51.264;7.150;2022-07-21T00:23:13;19.00;99.90
20833;DHT22;56075;51.264;7.150;2022-07-21T00:25:44;18.90;99.90
20833;DHT22;56075;51.264;7.150;2022-07-21T00:28:15;19.00;99.90
20833;DHT22;56075;51.264;7.150;2022-07-21T00:30:47;18.90;99.90
20833;DHT22;56075;51.264;7.150;2022-07-21T00:33:18;19.00;99.90
20833;DHT22;56075;51.264;7.150;2022-07-21T00:35:49;20.90;99.90
20833;DHT22;56075;51.264;7.150;2022-07-21T00:38:20;20.60;99.90
20833;DHT22;56075;51.264;7.150;2022-07-21T00:40:53;20.10;99.90
20833;DHT22;56075;51.264;7.150;2022-07-21T00:43:24;20.60;99.90
20833;DHT22;56075;51.264;7.150;2022-07-21T00:45:56;18.90;99.90
20833;DHT22;56075;51.264;7.150;2022-07-21T00:48:27;20.50;99.90
20833;DHT22;56075;51.264;7.150;2022-07-21T00:50:58;20.70;99.90
20833;DHT22;56075;51.264;7.150;2022-07-21T00:53:30;19.00;99.90
20833;DHT22;56075;51.264;7.150;2022-07-21T00:56:01;18.90;99.90
20833;DHT22;56075;51.264;7.150;2022-07-21T00:58:33;18.90;99.90
20833;DHT22;56075;51.264;7.150;2022-07-21T01:01:04;19.00;99.90
20833;DHT22;56075;51.264;7.150;2022-07-21T01:03:36;18.80;99.90
20833;DHT22;56075;51.264;7.150;2022-07-21T01:06:08;19.10;99.90
20833;DHT22;56075;51.264;7.150;2022-07-21T01:08:39;20.50;99.90
20833;DHT22;56075;51.264;7.150;2022-07-21T01:11:10;19.30;99.90
20833;DHT22;56075;51.264;7.150;2022-07-21T01:13:42;19.10;99.90
20833;DHT22;56075;51.264;7.150;2022-07-21T01:16:14;18.50;99.90
20833;DHT22;56075;51.264;7.150;2022-07-21T01:18:45;20.30;99.90
20833;DHT22;56075;51.264;7.150;2022-07-21T01:21:28;18.40;99.90
20833;DHT22;56075;51.264;7.150;2022-07-21T01:24:00;18.40;99.90
20833;DHT22;56075;51.264;7.150;2022-07-21T01:26:39;18.50;99.90
20833;DHT22;56075;51.264;7.150;2022-07-21T01:29:11;18.40;99.90
20833;DHT22;56075;51.264;7.150;2022-07-21T01:31:44;19.50;99.90
20833;DHT22;56075;51.264;7.150;2022-07-21T01:34:16;19.20;99.90
20833;DHT22;56075;51.264;7.150;2022-07-21T01:36:48;18.50;99.90
20833;DHT22;56075;51.264;7.150;2022-07-21T01:39:19;18.10;99.90
20833;DHT22;56075;51.264;7.150;2022-07-21T01:42:09;18.30;99.90
20833;DHT22;56075;51.264;7.150;2022-07-21T01:44:40;18.00;99.90
20833;DHT22;56075;51.264;7.150;2022-07-21T01:47:12;17.90;99.90
20833;DHT22;56075;51.264;7.150;2022-07-21T01:49:46;19.60;99.90
20833;DHT22;56075;51.264;7.150;2022-07-21T01:52:17;17.80;99.90
20833;DHT22;56075;51.264;7.150;2022-07-21T01:54:49;17.70;99.90
20833;DHT22;56075;51.264;7.150;2022-07-21T01:57:20;17.60;99.90
20833;DHT22;56075;51.264;7.150;2022-07-21T01:59:51;17.50;99.90
20833;DHT22;56075;51.264;7.150;2022-07-21T02:02:22;17.50;99.90
20833;DHT22;56075;51.264;7.150;2022-07-21T02:04:53;17.60;99.90
20833;DHT22;56075;51.264;7.150;2022-07-21T02:07:24;17.80;99.90
20833;DHT22;56075;51.264;7.150;2022-07-21T02:09:55;19.10;99.90
20833;DHT22;56075;51.264;7.150;2022-07-21T02:12:27;17.60;99.90
20833;DHT22;56075;51.264;7.150;2022-07-21T02:14:58;17.50;99.90
20833;DHT22;56075;51.264;7.150;2022-07-21T02:17:29;17.30;99.90
20833;DHT22;56075;51.264;7.150;2022-07-21T02:20:00;19.50;99.90
20833;DHT22;56075;51.264;7.150;2022-07-21T02:22:33;17.40;99.90
20833;DHT22;56075;51.264;7.150;2022-07-21T02:25:05;17.90;99.90
20833;DHT22;56075;51.264;7.150;2022-07-21T02:27:36;17.40;99.90
20833;DHT22;56075;51.264;7.150;2022-07-21T02:30:08;17.30;99.90
20833;DHT22;56075;51.264;7.150;2022-07-21T02:32:39;17.30;99.90
20833;DHT22;56075;51.264;7.150;2022-07-21T02:35:10;18.60;99.90
20833;DHT22;56075;51.264;7.150;2022-07-21T02:37:42;17.60;99.90
20833;DHT22;56075;51.264;7.150;2022-07-21T02:40:13;19.10;99.90
20833;DHT22;56075;51.264;7.150;2022-07-21T02:42:44;18.00;99.90
20833;DHT22;56075;51.264;7.150;2022-07-21T02:45:15;17.40;99.90
20833;DHT22;56075;51.264;7.150;2022-07-21T02:48:05;19.10;99.90
20833;DHT22;56075;51.264;7.150;2022-07-21T02:50:39;17.90;99.90
20833;DHT22;56075;51.264;7.150;2022-07-21T02:53:14;18.60;99.90
20833;DHT22;56075;51.264;7.150;2022-07-21T02:55:50;17.30;99.90
20833;DHT22;56075;51.264;7.150;2022-07-21T02:58:25;17.20;99.90
20833;DHT22;56075;51.264;7.150;2022-07-21T03:01:02;17.20;99.90
20833;DHT22;56075;51.264;7.150;2022-07-21T03:03:35;17.30;99.90
20833;DHT22;56075;51.264;7.150;2022-07-21T03:06:07;19.30;99.90
20833;DHT22;56075;51.264;7.150;2022-07-21T03:08:38;18.70;99.90
20833;DHT22;56075;51.264;7.150;2022-07-21T03:11:09;17.10;99.90
20833;DHT22;56075;51.264;7.150;2022-07-21T03:13:40;19.10;99.90
20833;DHT22;56075;51.264;7.150;2022-07-21T03:16:11;17.40;99.90
20833;DHT22;56075;51.264;7.150;2022-07-21T03:18:42;18.80;99.90
20833;DHT22;56075;51.264;7.150;2022-07-21T03:21:14;19.50;99.90
20833;DHT22;56075;51.264;7.150;2022-07-21T03:23:45;17.40;99.90
20833;DHT22;56075;51.264;7.150;2022-07-21T03:26:16;17.70;99.90
20833;DHT22;56075;51.264;7.150;2022-07-21T03:28:47;17.50;99.90
20833;DHT22;56075;51.264;7.150;2022-07-21T03:31:18;18.40;99.90
20833;DHT22;56075;51.264;7.150;2022-07-21T03:33:50;17.70;99.90
20833;DHT22;56075;51.264;7.150;2022-07-21T03:36:21;18.40;99.90
20833;DHT22;56075;51.264;7.150;2022-07-21T03:38:53;18.60;99.90
20833;DHT22;56075;51.264;7.150;2022-07-21T03:41:24;19.70;99.90
20833;DHT22;56075;51.264;7.150;2022-07-21T03:43:55;18.00;99.90
20833;DHT22;56075;51.264;7.150;2022-07-21T03:46:26;17.60;99.90
20833;DHT22;56075;51.264;7.150;2022-07-21T03:48:57;17.30;99.90
20833;DHT22;56075;51.264;7.150;2022-07-21T03:51:28;17.80;99.90
20833;DHT22;56075;51.264;7.150;2022-07-21T03:53:59;17.50;99.90
20833;DHT22;56075;51.264;7.150;2022-07-21T03:56:33;17.80;99.90
20833;DHT22;56075;51.264;7.150;2022-07-21T03:59:04;17.40;99.90
20833;DHT22;56075;51.264;7.150;2022-07-21T04:01:36;17.50;99.90
20833;DHT22;56075;51.264;7.150;2022-07-21T04:04:07;17.40;99.90
20833;DHT22;56075;51.264;7.150;2022-07-21T04:06:38;17.70;99.90
20833;DHT22;56075;51.264;7.150;2022-07-21T04:09:09;17.50;99.90
20833;DHT22;56075;51.264;7.150;2022-07-21T04:11:41;18.00;99.90
20833;DHT22;56075;51.264;7.150;2022-07-21T04:14:12;17.40;99.90
20833;DHT22;56075;51.264;7.150;2022-07-21T04:16:43;17.50;99.90
20833;DHT22;56075;51.264;7.150;2022-07-21T04:19:14;18.50;99.90
20833;DHT22;56075;51.264;7.150;2022-07-21T04:21:45;17.50;99.90
20833;DHT22;56075;51.264;7.150;2022-07-21T04:24:16;17.60;99.90
20833;DHT22;56075;51.264;7.150;2022-07-21T04:26:48;18.80;99.90
20833;DHT22;56075;51.264;7.150;2022-07-21T04:29:19;17.50;99.90
20833;DHT22;56075;51.264;7.150;2022-07-21T04:31:51;17.50;99.90
20833;DHT22;56075;51.264;7.150;2022-07-21T04:34:22;17.70;99.90
20833;DHT22;56075;51.264;7.150;2022-07-21T04:36:53;18.80;99.90
20833;DHT22;56075;51.264;7.150;2022-07-21T04:39:24;17.40;99.90
20833;DHT22;56075;51.264;7.150;2022-07-21T04:41:56;17.60;99.90
20833;DHT22;56075;51.264;7.150;2022-07-21T04:44:27;17.40;99.90
20833;DHT22;56075;51.264;7.150;2022-07-21T04:46:58;18.80;99.90
20833;DHT22;56075;51.264;7.150;2022-07-21T04:49:29;17.50;99.90
20833;DHT22;56075;51.264;7.150;2022-07-21T04:52:00;18.90;99.90
20833;DHT22;56075;51.264;7.150;2022-07-21T04:54:34;17.60;99.90
20833;DHT22;56075;51.264;7.150;2022-07-21T04:57:05;17.30;99.90
20833;DHT22;56075;51.264;7.150;2022-07-21T04:59:37;18.30;99.90
20833;DHT22;56075;51.264;7.150;2022-07-21T05:02:08;19.50;99.90
20833;DHT22;56075;51.264;7.150;2022-07-21T05:04:39;19.10;99.90
20833;DHT22;56075;51.264;7.150;2022-07-21T05:07:10;17.80;99.90
20833;DHT22;56075;51.264;7.150;2022-07-21T05:09:42;17.70;99.90
20833;DHT22;56075;51.264;7.150;2022-07-21T05:12:13;17.70;99.90
20833;DHT22;56075;51.264;7.150;2022-07-21T05:14:44;19.10;99.90
20833;DHT22;56075;51.264;7.150;2022-07-21T05:17:15;17.80;99.90
20833;DHT22;56075;51.264;7.150;2022-07-21T05:19:47;17.70;99.90
20833;DHT22;56075;51.264;7.150;2022-07-21T05:22:21;17.70;99.90
20833;DHT22;56075;51.264;7.150;2022-07-21T05:24:52;17.80;99.90
20833;DHT22;56075;51.264;7.150;2022-07-21T05:27:23;17.90;99.90
20833;DHT22;56075;51.264;7.150;2022-07-21T05:29:54;17.90;99.90
20833;DHT22;56075;51.264;7.150;2022-07-21T05:32:26;17.90;99.90
20833;DHT22;56075;51.264;7.150;2022-07-21T05:34:57;18.10;99.90
20833;DHT22;56075;51.264;7.150;2022-07-21T05:37:29;19.00;99.90
20833;DHT22;56075;51.264;7.150;2022-07-21T05:40:00;19.50;99.90
20833;DHT22;56075;51.264;7.150;2022-07-21T05:42:34;18.30;99.90
20833;DHT22;56075;51.264;7.150;2022-07-21T05:45:06;19.20;99.90
20833;DHT22;56075;51.264;7.150;2022-07-21T05:47:38;18.20;99.90
20833;DHT22;56075;51.264;7.150;2022-07-21T05:50:09;18.20;99.90
20833;DHT22;56075;51.264;7.150;2022-07-21T05:52:41;19.90;99.90
20833;DHT22;56075;51.264;7.150;2022-07-21T05:55:12;19.80;99.90
20833;DHT22;56075;51.264;7.150;2022-07-21T05:57:43;18.40;99.90
20833;DHT22;56075;51.264;7.150;2022-07-21T06:00:16;20.10;99.90
20833;DHT22;56075;51.264;7.150;2022-07-21T06:02:47;18.10;99.90
20833;DHT22;56075;51.264;7.150;2022-07-21T06:05:18;19.90;99.90
20833;DHT22;56075;51.264;7.150;2022-07-21T06:07:49;19.00;99.90
20833;DHT22;56075;51.264;7.150;2022-07-21T06:10:21;19.70;99.90
20833;DHT22;56075;51.264;7.150;2022-07-21T06:12:52;19.80;99.90
20833;DHT22;56075;51.264;7.150;2022-07-21T06:15:23;18.40;99.90
20833;DHT22;56075;51.264;7.150;2022-07-21T06:17:54;18.80;99.90
20833;DHT22;56075;51.264;7.150;2022-07-21T06:20:25;19.60;99.90
20833;DHT22;56075;51.264;7.150;2022-07-21T06:22:56;19.60;99.90
20833;DHT22;56075;51.264;7.150;2022-07-21T06:25:27;20.60;99.90
20833;DHT22;56075;51.264;7.150;2022-07-21T06:27:58;19.10;99.90
20833;DHT22;56075;51.264;7.150;2022-07-21T06:30:29;18.50;99.90
20833;DHT22;56075;51.264;7.150;2022-07-21T06:33:00;19.10;99.90
20833;DHT22;56075;51.264;7.150;2022-07-21T06:35:33;18.20;99.90
20833;DHT22;56075;51.264;7.150;2022-07-21T06:38:05;18.00;99.90
20833;DHT22;56075;51.264;7.150;2022-07-21T06:40:36;19.20;99.90
20833;DHT22;56075;51.264;7.150;2022-07-21T06:43:07;19.60;99.90
20833;DHT22;56075;51.264;7.150;2022-07-21T06:45:38;19.10;99.90
20833;DHT22;56075;51.264;7.150;2022-07-21T06:48:10;18.30;99.90
20833;DHT22;56075;51.264;7.150;2022-07-21T06:50:41;18.10;99.90
20833;DHT22;56075;51.264;7.150;2022-07-21T06:53:12;19.50;99.90
20833;DHT22;56075;51.264;7.150;2022-07-21T06:55:43;18.10;99.90
20833;DHT22;56075;51.264;7.150;2022-07-21T06:58:17;18.40;99.90
20833;DHT22;56075;51.264;7.150;2022-07-21T07:00:49;18.30;99.90
20833;DHT22;56075;51.264;7.150;2022-07-21T07:03:21;19.40;99.90
20833;DHT22;56075;51.264;7.150;2022-07-21T07:05:52;20.00;99.90
20833;DHT22;56075;51.264;7.150;2022-07-21T07:08:23;18.20;99.90
20833;DHT22;56075;51.264;7.150;2022-07-21T07:10:54;18.90;99.90
20833;DHT22;56075;51.264;7.150;2022-07-21T07:13:25;20.10;99.90
20833;DHT22;56075;51.264;7.150;2022-07-21T07:15:56;18.70;99.90
20833;DHT22;56075;51.264;7.150;2022-07-21T07:18:27;19.10;99.90
20833;DHT22;56075;51.264;7.150;2022-07-21T07:20:59;18.60;99.90
20833;DHT22;56075;51.264;7.150;2022-07-21T07:23:30;19.00;99.90
20833;DHT22;56075;51.264;7.150;2022-07-21T07:26:01;19.90;99.90
20833;DHT22;56075;51.264;7.150;2022-07-21T07:28:33;18.20;99.90
20833;DHT22;56075;51.264;7.150;2022-07-21T07:31:04;19.00;99.90
20833;DHT22;56075;51.264;7.150;2022-07-21T07:33:36;18.90;99.90
20833;DHT22;56075;51.264;7.150;2022-07-21T07:36:07;20.10;99.90
20833;DHT22;56075;51.264;7.150;2022-07-21T07:38:42;19.00;99.90
20833;DHT22;56075;51.264;7.150;2022-07-21T07:41:13;19.30;99.90
20833;DHT22;56075;51.264;7.150;2022-07-21T07:43:44;19.40;99.90
20833;DHT22;56075;51.264;7.150;2022-07-21T07:46:15;21.40;99.90
20833;DHT22;56075;51.264;7.150;2022-07-21T07:48:46;19.60;99.90
20833;DHT22;56075;51.264;7.150;2022-07-21T07:51:18;19.60;99.90
20833;DHT22;56075;51.264;7.150;2022-07-21T07:53:50;20.30;99.90
20833;DHT22;56075;51.264;7.150;2022-07-21T07:56:21;20.30;99.90
20833;DHT22;56075;51.264;7.150;2022-07-21T07:58:52;20.60;99.90
20833;DHT22;56075;51.264;7.150;2022-07-21T08:01:23;19.60;99.90
20833;DHT22;56075;51.264;7.150;2022-07-21T08:03:54;19.90;99.90
20833;DHT22;56075;51.264;7.150;2022-07-21T08:06:27;18.50;99.90
20833;DHT22;56075;51.264;7.150;2022-07-21T08:08:58;20.90;99.90
20833;DHT22;56075;51.264;7.150;2022-07-21T08:11:29;20.40;99.90
20833;DHT22;56075;51.264;7.150;2022-07-21T08:14:00;20.60;99.90
20833;DHT22;56075;51.264;7.150;2022-07-21T08:16:34;20.70;99.90
20833;DHT22;56075;51.264;7.150;2022-07-21T08:19:05;20.60;99.90
20833;DHT22;56075;51.264;7.150;2022-07-21T08:21:36;20.60;99.90
20833;DHT22;56075;51.264;7.150;2022-07-21T08:24:08;20.80;99.90
20833;DHT22;56075;51.264;7.150;2022-07-21T08:26:39;20.20;99.90
20833;DHT22;56075;51.264;7.150;2022-07-21T08:29:10;21.90;99.90
20833;DHT22;56075;51.264;7.150;2022-07-21T08:31:41;20.70;99.90
20833;DHT22;56075;51.264;7.150;2022-07-21T08:34:12;21.60;99.90
20833;DHT22;56075;51.264;7.150;2022-07-21T08:36:43;22.80;99.90
20833;DHT22;56075;51.264;7.150;2022-07-21T08:39:14;21.10;99.90
20833;DHT22;56075;51.264;7.150;2022-07-21T08:41:46;20.90;99.90
20833;DHT22;56075;51.264;7.150;2022-07-21T08:44:20;21.60;99.90
20833;DHT22;56075;51.264;7.150;2022-07-21T08:46:52;21.00;99.90
20833;DHT22;56075;51.264;7.150;2022-07-21T08:49:23;21.50;99.90
20833;DHT22;56075;51.264;7.150;2022-07-21T08:51:54;21.90;99.90
20833;DHT22;56075;51.264;7.150;2022-07-21T08:54:26;21.30;99.90
20833;DHT22;56075;51.264;7.150;2022-07-21T08:56:57;21.50;99.90
20833;DHT22;56075;51.264;7.150;2022-07-21T08:59:28;21.70;99.90
20833;DHT22;56075;51.264;7.150;2022-07-21T09:01:59;21.70;99.90
20833;DHT22;56075;51.264;7.150;2022-07-21T09:04:34;21.80;99.90
20833;DHT22;56075;51.264;7.150;2022-07-21T09:07:07;21.80;99.90
20833;DHT22;56075;51.264;7.150;2022-07-21T09:09:38;22.90;99.90
20833;DHT22;56075;51.264;7.150;2022-07-21T09:12:09;22.00;99.90
20833;DHT22;56075;51.264;7.150;2022-07-21T09:14:40;22.10;99.90
20833;DHT22;56075;51.264;7.150;2022-07-21T09:17:12;21.20;99.90
20833;DHT22;56075;51.264;7.150;2022-07-21T09:19:45;22.30;99.90
20833;DHT22;56075;51.264;7.150;2022-07-21T09:22:17;24.20;99.90
20833;DHT22;56075;51.264;7.150;2022-07-21T09:24:51;23.20;99.90
20833;DHT22;56075;51.264;7.150;2022-07-21T09:27:24;22.50;99.90
20833;DHT22;56075;51.264;7.150;2022-07-21T09:30:00;22.40;99.90
20833;DHT22;56075;51.264;7.150;2022-07-21T09:32:35;22.20;99.90
20833;DHT22;56075;51.264;7.150;2022-07-21T09:35:11;22.00;99.90
20833;DHT22;56075;51.264;7.150;2022-07-21T09:37:45;21.90;99.90
20833;DHT22;56075;51.264;7.150;2022-07-21T09:40:16;21.70;99.90
20833;DHT22;56075;51.264;7.150;2022-07-21T09:42:50;22.70;99.90
20833;DHT22;56075;51.264;7.150;2022-07-21T09:45:21;21.60;99.90
20833;DHT22;56075;51.264;7.150;2022-07-21T09:47:52;21.70;99.90
20833;DHT22;56075;51.264;7.150;2022-07-21T09:50:23;22.20;99.90
20833;DHT22;56075;51.264;7.150;2022-07-21T09:52:56;23.10;99.90
20833;DHT22;56075;51.264;7.150;2022-07-21T09:55:28;22.60;99.90
20833;DHT22;56075;51.264;7.150;2022-07-21T09:58:02;22.40;99.90
20833;DHT22;56075;51.264;7.150;2022-07-21T10:00:33;23.20;99.90
20833;DHT22;56075;51.264;7.150;2022-07-21T10:03:06;22.40;99.90
20833;DHT22;56075;51.264;7.150;2022-07-21T10:05:37;22.50;99.90
20833;DHT22;56075;51.264;7.150;2022-07-21T10:08:08;22.20;99.90
20833;DHT22;56075;51.264;7.150;2022-07-21T10:10:43;22.40;99.90
20833;DHT22;56075;51.264;7.150;2022-07-21T10:13:14;22.20;99.90
20833;DHT22;56075;51.264;7.150;2022-07-21T10:15:46;22.40;99.90
20833;DHT22;56075;51.264;7.150;2022-07-21T10:18:20;22.20;99.90
20833;DHT22;56075;51.264;7.150;2022-07-21T10:21:00;22.10;99.90
20833;DHT22;56075;51.264;7.150;2022-07-21T10:23:41;22.00;99.90
20833;DHT22;56075;51.264;7.150;2022-07-21T10:26:13;23.00;99.90
20833;DHT22;56075;51.264;7.150;2022-07-21T10:28:44;22.00;99.90
20833;DHT22;56075;51.264;7.150;2022-07-21T10:31:21;22.10;99.90
20833;DHT22;56075;51.264;7.150;2022-07-21T10:33:56;21.80;99.90
20833;DHT22;56075;51.264;7.150;2022-07-21T10:47:16;22.80;99.90
20833;DHT22;56075;51.264;7.150;2022-07-21T10:49:58;21.80;99.90
20833;DHT22;56075;51.264;7.150;2022-07-21T10:55:20;21.70;99.90
20833;DHT22;56075;51.264;7.150;2022-07-21T10:58:33;21.50;99.90
20833;DHT22;56075;51.264;7.150;2022-07-21T11:01:28;21.60;99.90
20833;DHT22;56075;51.264;7.150;2022-07-21T11:04:12;21.40;99.90
20833;DHT22;56075;51.264;7.150;2022-07-21T11:06:45;21.10;99.90
20833;DHT22;56075;51.264;7.150;2022-07-21T11:09:18;20.90;99.90
20833;DHT22;56075;51.264;7.150;2022-07-21T11:12:02;20.70;99.90
20833;DHT22;56075;51.264;7.150;2022-07-21T11:14:43;21.40;99.90
20833;DHT22;56075;51.264;7.150;2022-07-21T11:17:30;21.40;99.90
20833;DHT22;56075;51.264;7.150;2022-07-21T11:20:12;19.70;99.90
20833;DHT22;56075;51.264;7.150;2022-07-21T11:22:52;19.60;99.90
20833;DHT22;56075;51.264;7.150;2022-07-21T11:25:23;19.40;99.90
20833;DHT22;56075;51.264;7.150;2022-07-21T11:27:55;19.40;99.90
20833;DHT22;56075;51.264;7.150;2022-07-21T11:30:26;20.80;99.90
20833;DHT22;56075;51.264;7.150;2022-07-21T11:32:57;19.10;99.90
20833;DHT22;56075;51.264;7.150;2022-07-21T11:35:28;21.00;99.90
20833;DHT22;56075;51.264;7.150;2022-07-21T11:38:03;20.50;99.90
20833;DHT22;56075;51.264;7.150;2022-07-21T11:40:35;20.40;99.90
20833;DHT22;56075;51.264;7.150;2022-07-21T11:43:06;19.00;99.90
20833;DHT22;56075;51.264;7.150;2022-07-21T11:45:37;20.70;99.90
20833;DHT22;56075;51.264;7.150;2022-07-21T11:48:08;18.80;99.90
20833;DHT22;56075;51.264;7.150;2022-07-21T11:50:39;20.10;99.90
20833;DHT22;56075;51.264;7.150;2022-07-21T11:53:10;21.00;99.90
20833;DHT22;56075;51.264;7.150;2022-07-21T11:55:41;19.00;99.90
20833;DHT22;56075;51.264;7.150;2022-07-21T11:58:13;19.00;99.90
20833;DHT22;56075;51.264;7.150;2022-07-21T12:00:46;20.00;99.90
20833;DHT22;56075;51.264;7.150;2022-07-21T12:03:17;18.70;99.90
20833;DHT22;56075;51.264;7.150;2022-07-21T12:05:48;19.10;99.90
20833;DHT22;56075;51.264;7.150;2022-07-21T12:08:19;20.40;99.90
20833;DHT22;56075;51.264;7.150;2022-07-21T12:10:51;18.90;99.90
20833;DHT22;56075;51.264;7.150;2022-07-21T12:13:22;18.70;99.90
20833;DHT22;56075;51.264;7.150;2022-07-21T12:15:53;19.70;99.90
20833;DHT22;56075;51.264;7.150;2022-07-21T12:18:25;18.90;99.90
20833;DHT22;56075;51.264;7.150;2022-07-21T12:21:03;19.70;99.90
20833;DHT22;56075;51.264;7.150;2022-07-21T12:23:37;18.60;99.90
20833;DHT22;56075;51.264;7.150;2022-07-21T12:26:20;20.20;99.90
20833;DHT22;56075;51.264;7.150;2022-07-21T12:28:52;19.60;99.90
20833;DHT22;56075;51.264;7.150;2022-07-21T12:31:25;18.50;99.90
20833;DHT22;56075;51.264;7.150;2022-07-21T12:33:56;20.20;99.90
20833;DHT22;56075;51.264;7.150;2022-07-21T12:36:28;18.50;99.90
20833;DHT22;56075;51.264;7.150;2022-07-21T12:39:13;18.50;99.90
20833;DHT22;56075;51.264;7.150;2022-07-21T12:41:44;18.60;99.90
20833;DHT22;56075;51.264;7.150;2022-07-21T12:44:16;19.90;99.90
20833;DHT22;56075;51.264;7.150;2022-07-21T12:46:48;18.50;99.90
20833;DHT22;56075;51.264;7.150;2022-07-21T12:49:19;18.50;99.90
20833;DHT22;56075;51.264;7.150;2022-07-21T12:51:57;18.40;99.90
20833;DHT22;56075;51.264;7.150;2022-07-21T12:54:28;19.20;99.90
20833;DHT22;56075;51.264;7.150;2022-07-21T12:57:00;18.90;99.90
20833;DHT22;56075;51.264;7.150;2022-07-21T12:59:33;18.50;99.90
20833;DHT22;56075;51.264;7.150;2022-07-21T13:02:05;18.80;99.90
20833;DHT22;56075;51.264;7.150;2022-07-21T13:04:36;20.70;99.90
20833;DHT22;56075;51.264;7.150;2022-07-21T13:07:08;18.50;99.90
20833;DHT22;56075;51.264;7.150;2022-07-21T13:09:39;18.40;99.90
20833;DHT22;56075;51.264;7.150;2022-07-21T13:12:14;19.50;99.90
20833;DHT22;56075;51.264;7.150;2022-07-21T13:14:45;18.40;99.90
20833;DHT22;56075;51.264;7.150;2022-07-21T13:17:16;20.50;99.90
20833;DHT22;56075;51.264;7.150;2022-07-21T13:19:47;19.00;99.90
20833;DHT22;56075;51.264;7.150;2022-07-21T13:22:18;20.00;99.90
20833;DHT22;56075;51.264;7.150;2022-07-21T13:24:49;18.40;99.90
20833;DHT22;56075;51.264;7.150;2022-07-21T13:27:21;18.30;99.90
20833;DHT22;56075;51.264;7.150;2022-07-21T13:29:53;19.40;99.90
20833;DHT22;56075;51.264;7.150;2022-07-21T13:32:24;18.30;99.90
20833;DHT22;56075;51.264;7.150;2022-07-21T13:34:55;19.40;99.90
20833;DHT22;56075;51.264;7.150;2022-07-21T13:37:26;18.70;99.90
20833;DHT22;56075;51.264;7.150;2022-07-21T13:39:58;19.50;99.90
20833;DHT22;56075;51.264;7.150;2022-07-21T13:42:29;17.80;99.90
20833;DHT22;56075;51.264;7.150;2022-07-21T13:45:00;18.10;99.90
20833;DHT22;56075;51.264;7.150;2022-07-21T13:47:34;17.80;99.90
20833;DHT22;56075;51.264;7.150;2022-07-21T13:50:05;18.60;99.90
20833;DHT22;56075;51.264;7.150;2022-07-21T13:52:37;17.90;99.90
20833;DHT22;56075;51.264;7.150;2022-07-21T13:55:09;19.20;99.90
20833;DHT22;56075;51.264;7.150;2022-07-21T13:57:40;19.70;99.90
20833;DHT22;56075;51.264;7.150;2022-07-21T14:00:12;17.90;99.90
20833;DHT22;56075;51.264;7.150;2022-07-21T14:02:43;18.00;99.90
20833;DHT22;56075;51.264;7.150;2022-07-21T14:05:14;19.80;99.90
20833;DHT22;56075;51.264;7.150;2022-07-21T14:07:45;19.30;99.90
20833;DHT22;56075;51.264;7.150;2022-07-21T14:10:16;18.60;99.90
20833;DHT22;56075;51.264;7.150;2022-07-21T14:12:48;17.90;99.90
20833;DHT22;56075;51.264;7.150;2022-07-21T14:15:19;17.80;99.90
20833;DHT22;56075;51.264;7.150;2022-07-21T14:17:51;17.80;99.90
20833;DHT22;56075;51.264;7.150;2022-07-21T14:20:22;18.40;99.90
20833;DHT22;56075;51.264;7.150;2022-07-21T14:22:54;19.80;99.90
20833;DHT22;56075;51.264;7.150;2022-07-21T14:25:25;19.00;99.90
20833;DHT22;56075;51.264;7.150;2022-07-21T14:27:57;17.80;99.90
20833;DHT22;56075;51.264;7.150;2022-07-21T14:30:28;18.90;99.90
20833;DHT22;56075;51.264;7.150;2022-07-21T14:32:59;17.90;99.90
20833;DHT22;56075;51.264;7.150;2022-07-21T14:35:31;19.80;99.90
20833;DHT22;56075;51.264;7.150;2022-07-21T14:38:03;17.60;99.90
20833;DHT22;56075;51.264;7.150;2022-07-21T14:40:34;18.00;99.90
20833;DHT22;56075;51.264;7.150;2022-07-21T14:43:06;17.80;99.90
20833;DHT22;56075;51.264;7.150;2022-07-21T14:45:37;19.00;99.90
20833;DHT22;56075;51.264;7.150;2022-07-21T14:48:09;17.80;99.90
20833;DHT22;56075;51.264;7.150;2022-07-21T14:50:40;18.00;99.90
20833;DHT22;56075;51.264;7.150;2022-07-21T14:53:11;18.10;99.90
20833;DHT22;56075;51.264;7.150;2022-07-21T14:55:42;18.20;99.90
20833;DHT22;56075;51.264;7.150;2022-07-21T14:58:13;18.00;99.90
20833;DHT22;56075;51.264;7.150;2022-07-21T15:00:45;19.70;99.90
20833;DHT22;56075;51.264;7.150;2022-07-21T15:03:17;20.20;99.90
20833;DHT22;56075;51.264;7.150;2022-07-21T15:05:49;18.10;99.90
20833;DHT22;56075;51.264;7.150;2022-07-21T15:08:20;19.80;99.90
20833;DHT22;56075;51.264;7.150;2022-07-21T15:10:51;17.80;99.90
20833;DHT22;56075;51.264;7.150;2022-07-21T15:13:22;19.70;99.90
20833;DHT22;56075;51.264;7.150;2022-07-21T15:15:57;17.80;99.90
20833;DHT22;56075;51.264;7.150;2022-07-21T15:18:28;18.90;99.90
20833;DHT22;56075;51.264;7.150;2022-07-21T15:20:59;17.70;99.90
20833;DHT22;56075;51.264;7.150;2022-07-21T15:23:30;17.60;99.90
20833;DHT22;56075;51.264;7.150;2022-07-21T15:26:02;19.40;99.90
20833;DHT22;56075;51.264;7.150;2022-07-21T15:28:33;19.00;99.90
20833;DHT22;56075;51.264;7.150;2022-07-21T15:31:04;17.70;99.90
20833;DHT22;56075;51.264;7.150;2022-07-21T15:33:36;18.10;99.90
20833;DHT22;56075;51.264;7.150;2022-07-21T15:36:07;19.20;99.90
20833;DHT22;56075;51.264;7.150;2022-07-21T15:38:39;17.70;99.90
20833;DHT22;56075;51.264;7.150;2022-07-21T15:41:10;17.60;99.90
20833;DHT22;56075;51.264;7.150;2022-07-21T15:43:41;17.70;99.90
20833;DHT22;56075;51.264;7.150;2022-07-21T15:46:12;17.70;99.90
20833;DHT22;56075;51.264;7.150;2022-07-21T15:48:43;17.90;99.90
20833;DHT22;56075;51.264;7.150;2022-07-21T15:51:15;17.80;99.90
20833;DHT22;56075;51.264;7.150;2022-07-21T15:53:46;17.80;99.90
20833;DHT22;56075;51.264;7.150;2022-07-21T15:56:19;17.70;99.90
20833;DHT22;56075;51.264;7.150;2022-07-21T15:58:50;17.70;99.90
20833;DHT22;56075;51.264;7.150;2022-07-21T16:01:40;17.70;99.90
20833;DHT22;56075;51.264;7.150;2022-07-21T16:04:11;17.50;99.90
20833;DHT22;56075;51.264;7.150;2022-07-21T16:06:42;17.50;99.90
20833;DHT22;56075;51.264;7.150;2022-07-21T16:09:13;17.70;99.90
20833;DHT22;56075;51.264;7.150;2022-07-21T16:11:45;17.60;99.90
20833;DHT22;56075;51.264;7.150;2022-07-21T16:14:16;17.50;99.90